« 2013年5月 | トップページ | 2013年7月 »

2013年6月

2013/06/30

ミサイル艇出港 富山新港 2013/6/30 sun

昨日29日に一般公開された、ミサイル艇が本日30日早朝に出港となり、お見送りにいってきた。

20130630_shinko_00pg

時刻は6時半、ラジオ体操の時間です。

20130630_shinko_01pg824

岸壁には関係者だけ・・・ と思いきや、艇が停泊していないところに釣り客がドッサリ。

20130630_shinko_02pg824

さて、朝の始業点検。ウォータージェットの点検です。

20130630_shinko_03pg824

右左下上とノズルの稼動を点検します。

20130630_shinko_04pg828

僚艇「うみたか」では、艦首の国旗掲揚柱もたたまれて、着実に出港準備が進んでいきます。

20130630_shinko_05pg828

出港方法は昨日と同様の模様で、艦首の錨が下ろされました。

20130630_shinko_06pg828

ウォータージェットの試運転開始。

20130630_shinko_07pg828

20130630_shinko_08pg824

3基全てが起動して、あわあわです。

20130630_shinko_09pg828

出港はじめ。艫綱が解かれて、逆進をかけながら艦尾から離岸してゆく「うみたか」。

20130630_shinko_10pg824

「はやぶさ」も同様に離岸開始。そして、自衛艦旗が掲揚されます。

20130630_shinko_11pg828

隊指令は、魅せてくれます。2艇同時に離岸、出港。

20130630_shinko_12pg828

20130630_shinko_13pg828

20130630_shinko_14pg824

20130630_shinko_15pg828

20130630_shinko_16pg824

20130630_shinko_17pg828

20130630_shinko_18pg828_2

7:25出港 先を行くはPG828「うみたか」

20130630_shinko_19pg824

20130630_shinko_20pg824

20130630_shinko_21pg824

PG824「はやぶさ」が後を追います。

20130630_shinko_22pg_2

20130630_shinko_23pg

20130630_shinko_24pg

20130630_shinko_25pg828

また、どこかの港で逢いましょう。お元気で。

| | コメント (0) | トラックバック (0)

2013/06/29

「はやぶさ」一般公開 富山新港 2013/6/29 sat

先日ようやくオープンした、新湊大橋歩道は、「あいの風プロムナード」と名づけられた。結局、観光施設の要素が強くなった施設であるが、チョット疑問もある。

20130629_shinko_00ainokaze

堀岡側エレベータ口

20130629_shinko_01ainokaze

橋の中央からみた歩道。

20130629_shinko_02pg

越ノ潟側タワーから海王岸壁に停泊中のミサイル艇を見る。

20130629_shinko_03pg

まだ、朝早いので、釣り客のみ。

20130629_shinko_04pg

20130629_shinko_05pg828

隊員が岸壁に整列して、自衛艦掲揚の時間。

20130629_shinko_06pg828

課業はじめー 

20130629_shinko_07pg824

はやぶさでも自衛官旗掲揚

20130629_shinko_08pg828

うみたか自衛官旗掲揚

20130629_shinko_09pg824

今日は、PG824はやぶさが一般公開です。

20130629_shinko_10pg828

一方、うみたかでは、速射砲をブラシでゴシゴシ。

20130629_shinko_11shiki

入港歓迎式展が挙行されるため、うみたか乗組員がやってきた。

20130629_shinko_12shiki

恒例の花束贈呈は、いみず観光大使からミサイル艇隊指令へ。

20130629_shinko_13pg824

いよいよ、乗艦です。

20130629_shinko_14pg824

20130629_shinko_15pg824

20130629_shinko_16pg824

20130629_shinko_17pg828

20130629_shinko_19pg828

ひととおり、冗談を交わしながら見学して、降艦。

20130629_shinko_20pg828

PG828うみたかでは、速射砲の動作展示。

20130629_shinko_21pg828

はーい、上みてー。

20130629_shinko_22pg

はやぶさ前では、らっぱ吹奏。何度もリクエストもらって盛況でした。

20130629_shinko_23pg

のんびりと公開は、お昼をまわり・・・

20130629_shinko_24pg828

今日は、うみたかが関係者と入隊予定者をのせてミニ航海を実施の予定。展示用の自衛官旗から航海用旗に交換の珍しい場面。

20130629_shinko_25pg824

PG824はやぶさに掲揚されていた代将旗が降ろされて・・・

20130629_shinko_26pg828

PG828うみたかに掲揚され、隊指令と司令部が移動しました。

20130629_shinko_27pg828

いよいよ、ウォータージェットが起動されて・・・ あわあわあわ

20130629_shinko_28pg828

逆進をかけて、後ろ側から離岸です。

20130629_shinko_29pg828

20130629_shinko_30pg828

20130629_shinko_31pg828

20130629_shinko_32pg828

20130629_shinko_33pg828

青い空に白い水飛沫は、夏ですなー。

20130629_shinko_34pg828

20130629_shinko_35pg828

航海は1時間半。小生は、所要により本日はRTB。

| | コメント (0) | トラックバック (0)

タマたま 富山空港 2013/6/28 fri

サザエさんの玉じゃないけど、今日はお魚追っかけて~♪ な一日。

RJNT 280400Z 36009KT 330V030 9999 FEW035 BKN/// 27/18 Q1006

20130628_rjnt_00ja8595

20130628_rjnt_01ja8595

ADO78 RJCC-RJNT JA8595 B737-54K

RJNT 280500Z 01010KT 340V040 9999 FEW035 BKN/// 26/17 Q1006

20130628_rjnt_02ja804a

20130628_rjnt_03ja804a

20130628_rjnt_04ja804a

20130628_rjnt_05ja804a

20130628_rjnt_06ja804a

20130628_rjnt_07ja804a

ANA885 RJTT-RJNT JA804A B787-881

20130628_rjnt_08ja8595

ADO79 RJNT-RJCC JA8595 B737-54K

RJNT 280600Z 36011KT 9999 FEW030 BKN/// 26/18 Q1006

20130628_rjnt_09ja804a

20130628_rjnt_10ja804a

20130628_rjnt_11ja804a

ANA888 RJNT-RJTT JA804A B787-881

で、ここで河原を離脱、海のお魚を釣りに富山新港へ Go!

が、釣果を評価する間もなく、河原に急行。

RJNT 281000Z 03006KT 340V090 9999 FEW030 SCT050 BKN/// 24/18 Q1007

20130628_rjnt_12ja801a

20130628_rjnt_13ja801a

20130628_rjnt_14ja801a

20130628_rjnt_15ja801a

ANA889 RJTT-RJNT JA801A B787-881

RJNT 281100Z 02006KT 9999 FEW020 BKN035 23/18 Q1007

20130628_rjnt_16ja801a

20130628_rjnt_18ja801a

20130628_rjnt_19ja801a

20130628_rjnt_20ja801a

20130628_rjnt_21ja801a

20130628_rjnt_22ja801a

ANA892 RJNT-RJTT JA801A B787-881

ネコのように目ざとく? 獲物の追っかけ、でした。

| | コメント (0) | トラックバック (0)

2013/06/28

<速報>ミサイル艇入港 富山新港 2013/6/28 fri

いよいよ夏、海のシーズンです。明日29日の艦艇広報のため、富山新港にミサイル艇が入港するので、お出迎えに行ってきました。

20130628_shinko_00pg824

17:50 富山新港沖、氷見方面からまず一艇視認。

20130628_shinko_01pg824

父兄会のお姉さんに混じって、お出迎えです。進入航路に入って、向かってきます。

20130628_shinko_02pg824

艦首に一列に並んで、入港。

20130628_shinko_03pg824

艦長一声、「帽ふれー」。小生も写真を撮りながら、振りかえします。

20130628_shinko_04pg824

舞鶴地方隊第2ミサイル艇隊所属、はやぶさ型ミサイル艇一番艇PG824「はやぶさ」

20130628_shinko_05pg824

20130628_shinko_06pg828

続いてPG828「うみたか」

20130628_shinko_07pg828

こちらも、「帽ふれー」

20130628_shinko_08pg828

20130628_shinko_09pg828

艦尾に自衛艦旗が見当たらないと思ったら、マストに歴戦を語るような自衛艦旗。

20130628_shinko_10pg824

海王岸壁に接岸

20130628_shinko_11pg824

20130628_shinko_12pg824

20130628_shinko_13pg828

20130628_shinko_14pg824

20130628_shinko_15pg824

20130628_shinko_16pg824

20130628_shinko_17pg824

20130628_shinko_18pg828

20130628_shinko_19pg828

20130628_shinko_20pg828

一般公開は、明日29日 9:10から 「はやぶさ」のみ公開の予定です。

| | コメント (0) | トラックバック (0)

2013/06/27

趣味的航空路誌改訂情報 2013/06/27 thu

趣味的航空路誌改訂情報 2013/06/27 thu
6月27日の航空路誌改訂から、めぼしいものをピックアップ。これはあくまでも小生が趣味的にメモとして記録しているものです。

○位置通報点の設定
Establishment of reporting point;
BOCHU ボウチュー, DIKAN ダイカン, DOUJI ドウジ, FUMO フモト

○待機、進入及び出発方式に係る記載事項の変更

○中部国際空港におけるマルチラテレーションの運用開始

○秋田空港における計器進入方式に係る記載事項の変更
VOR Z RWY10
VOR Y RWY10

○調布飛行場に係る記載事項(エプロン標識)の変更

○岩国飛行場における飛行の方式に係る記載事項の変更等
MATSUYAMA SOUTH EAST ONE DEPARTURE

○鹿児島空港におけるターミナルレーダーアルファニューメリック表示システム(TRAD) の運用開始

○熊本空港における計器進入方式の設定
Establishment → RNAV(RNP) Z RWY25
Establishment → RNAV(RNP) Y RWY25

○大館能代空港における計器進入方式の改正
RNAV(RNP) Z RWY29
RNAV(RNP) Y RWY29

○山口宇部空港における標準計器出発方式(Basic RNP1) の設定及び転移経路に係る記載事項の改正
Establishment → HIMESHIMA ONE DEPARTURE
ABARTO TRANSITION

□宮崎VOR/DME(MZE)工事のため運用休止 2013.6.27 - 2013.9.18
 代替に仮設赤江VOR/DEM(AEE)が運用される

☆今期の更新計画等
・札幌VOR/DME(SPE) 2014.3
・千歳VOR/DME(CHE) 2014.1 代替美々VOR/DME(VVE)
・庄内27ILS(ISN) 2013.10
・雄和VOR/DME(UWE) 2013.11 代替羽後VOR/DME(UGE)
・山形ILS(GS) 2013.11
・佐倉VOR廃止(DME化) 2014.2
・大島VORTAC(XAC) 2013.11 代替椿VOR/DME(TUE)
・三宅島VOR廃止(DME化) 2013.12
・熊谷AEIS廃止 2014.1
・所沢AEIS運用開始 2014.1
・新潟TSR運用開始 2014.5
・河和VOR廃止(TAC化) 2014.6
・鳥取VOR/DME(TRE) 2014.2 代替湖山VOR/DME(LKE)
・鳥取ILS 2014.2
・南紀白浜LOC/DME 2013.12
・伊丹NDB廃止 2013.7
・小豆VOR廃止(DME化) 2014.2
・岡山VOR廃止(TAC化) 2014.2
・福岡VORTAC(DGC) 2014.7 代替未定
・佐賀ILS 2014.2
・佐賀VOR/DME(SGE) 2014.2 代替肥前VOR/DME(HZE)
・永良部VORTAC(ONC) 2014.9 代替未定
・南大東VOR/DME(MDE) 2014.8
・知念TACAN(TIT) 2014.4
・宮古島VORTAC(MYC)運用停止 2014.5
・新宮古島VORTAC(MJC)運用開始 2014.5
・宮古ILS 2014.9

| | コメント (0) | トラックバック (0)

2013/06/26

まさしく八重 富山空港 2013/6/26 wed

雨 と言えば三善英史と思いましたが、今日は テレサ・テン だな

20130626_rjnt_00ja305k

クマが列車に衝突するご時勢、ベアは雨の中。

RJNT 260415Z 06004KT 020V100 7000 -RA FEW008 SCT030 OVC080 22/19 Q0999 RMK 1ST008 4SC030 8AS080 A2952

20130626_rjnt_01ja305k

20130626_rjnt_02ja305k

ADO78 RJCC-RJNT JA305K B737-54K

RJNT 260500Z 05003KT 350V090 8000 -RA FEW008 BKN030 OVC080 21/19 Q0998

20130626_rjnt_03ja305k

20130626_rjnt_04ja305k

ADO79 RJNT-RJCC JA305K B737-54K

通常ならば、クマと鉢合わせの予定が、なにやらトラブルで遅れている。

RJNT 260600Z 33003KT 7000 -RA FEW006 SCT010 BKN030 22/19 Q0998

20130626_rjnt_05ja817a

雨にけぶる中・・・ 約1時間遅れで

20130626_rjnt_06ja817a

20130626_rjnt_07ja817a

豪快な水飛沫をあげて・・・

20130626_rjnt_08ja817a

ANA885 RJTT-RJNT JA817A B787-881

RJNT 260705Z VRB02KT 4500 -RA BR FEW006 SCT008 BKN015 21/19 Q0997 RMK 1ST006 3ST008 6SC015 A2946

20130626_rjnt_09ja8677

20130626_rjnt_10ja8677

20130626_rjnt_11ja8677

ANA887 RJTT-RJNT JA8677 B767-381

20130626_rjnt_12ja8677

「ふくしまからはじめよう」

20130626_rjnt_13ja8677

オイッース! 

20130626_rjnt_14ja817a

まさしく八重と8の重なり

20130626_rjnt_15ja817a

20130626_rjnt_16ja817a

20130626_rjnt_17ja817a

20130626_rjnt_18ja817a

ANA888 RJNT-RJTT JA817A B787-881

RJNT 260802Z 21003KT 180V240 3500 RA BR FEW006 BKN010 21/19 Q0997 RMK 1ST006 7ST010 A2945

20130626_rjnt_19ja8677

20130626_rjnt_20ja8677

20130626_rjnt_21ja8677

20130626_rjnt_22ja8677

ANA890 RJNT-RJTT JA8677 B767-381

20130626_rjnt_23teltel

明日は、雨がやみますよーに!

| | コメント (0) | トラックバック (0)

2013/06/19

定点 富山空港 2013/6/15 sat

6/15 ボーイング787富山就航 は、別掲で、当日の朝から一日を

20130615_rjnt_50ja701a

昨日夜明かししたトリプルは、始発882でフライト

RJNT 142200Z 29003KT 250V320 9999 -SHRA FEW009 BKN025 23/20 Q1012

20130615_rjnt_51ja701a

20130615_rjnt_52ja701a

APU故障のためエンジンスタートにチョット時間がかかって、シーケンス上RW20から離陸となる。

20130615_rjnt_53ja701a

ANA882 RJNT-RJTT JA701A B777-281

20130615_rjnt_54ja8669

トリプルの離陸を追って881着陸

ANA881 RJTT-RJNT JA8669 B767-381

RJNT 142300Z 31004KT 9999 -SHRA FEW010 BKN025 23/20 Q1012

20130615_rjnt_55ja8669

20130615_rjnt_56ja8669

ANA884 RJNT-RJTT JA8669 B767-381

RJNT 150117Z 31004KT 2300 SHRA BR FEW003 BKN010 BKN015 22/21 Q1012 RMK 1ST003 5CU010 7CU015 A2989

20130615_rjnt_57ja8289

雨が激しくギリギリの視程の中、ランディング

20130615_rjnt_58ja8289

20130615_rjnt_59ja8289

20130615_rjnt_60ja8289

ANA883 RJTT-RJNT JA8289 B767-381

RJNT 150208Z VRB01KT 5000 -SHRA BR FEW002 BKN008 BKN015 22/21 Q1011 RMK 1ST002 5CU008 7CU015 A2987

20130615_rjnt_61ja8289

20130615_rjnt_62ja8289

ほらエンジン内にベイパーが出ています。

20130615_rjnt_63ja8289

ANA886 RJNT-RJTT JA8289 B767-381

小生のデジカメも怪しい動きをしだしております。

RJNT 150449Z VRB02KT 4000 -SHRA BR FEW003 SCT006 BKN025 23/21 Q1010 RMK 1ST003 3ST006 6CU025 A2985

20130615_rjnt_64ja8595

ADO78 RJCC-RJNT JA8595 B737-54K

ANA885

RJNT 150535Z VRB01KT 5000 -SHRA BR FEW003 SCT005 BKN025 23/21 Q1010 RMK 1ST003 3ST005 5CU025 A2984

20130615_rjnt_65ja8595

20130615_rjnt_66ja8595

ADO79 RJNT-RJCC JA8595 B737-54K

20130615_rjnt_67b5077

上海天候不良により2時間遅れで到着

20130615_rjnt_68b5077

CSH825 ZSPD-RJNT B-5077 B737-86N

ANA886

RJNT 150600Z VRB02KT 6000 -SHRA BR FEW003 SCT015 BKN025 23/21 Q1010

20130615_rjnt_69b5077

20130615_rjnt_70b5077

CSH826 RJNT-ZSPD B-5077 B737-86N

RJNT 150700Z VRB02KT 8000 -SHRA FEW003 SCT008 BKN025 23/21 Q1010

20130615_rjnt_71ja8669

ANA887 RJTT-RJNT JA8669 B767-381

RJNT 150800Z VRB02KT 8000 -SHRA FEW003 SCT010 BKN040 23/21 Q1010

20130615_rjnt_72ja8669

20130615_rjnt_73ja8669

20130615_rjnt_74ja8669

ANA890 RJNT-RJTT JA8669 B767-381

ANA889/ANA892/ANA891

| | コメント (0) | トラックバック (0)

2013/06/18

定点 富山空港 2013/6/17 mon

まだまだ、非日常の空港周りです。787飛来の時間が近づくと、わらわらと人が集まってきて、各ポイントは人山になっています。そお言いながら、小生もその中の一人なのですが。

RJNT 170400Z 34007KT 300V020 9999 FEW040 BKN/// 31/16 Q1000

20130617_rjnt_00ja301k

20130617_rjnt_01ja301k

ADO78 RJCC-RJNT JA301K B737-54K

RJNT 170500Z 34009KT 9999 FEW040 BKN/// 30/18 Q1001

20130617_rjnt_02ja803a

20130617_rjnt_03ja803a

ANA885 RJTT-RJNT JA803A B787-881

20130617_rjnt_04ja301k

20130617_rjnt_05ja301k

ADO79 RJNT-RJCC JA301K B737-54K

RJNT 170600Z 31008KT 260V010 9999 FEW030 BKN/// 29/19 Q1001

20130617_rjnt_06ja803a

20130617_rjnt_07ja803a

20130617_rjnt_08ja803a

ANA888 RJNT-RJTT JA803A B787-881

さて、787就航までの飛来機を記録しているのだが、まだパターンが確定できていない。ひょんと思っていない機体がやってくるので、期待もある。

20130612 ANA---882 JA8578
20130612 ANA881884 JA8578
20130612 ANA883886 JA744A
20130612 ANA885888 JA59AN
20130612 ANA887890 JA8285
20130612 ANA889892 JA8289
20130612 ANA891--- JA8669

20130613 ANA---882 JA8669
20130613 ANA881884 JA8568
20130613 ANA883886 JA712A
20130613 ANA885888 JA8396
20130613 ANA887890 JA8357
20130613 ANA889892 JA8579
20130613 ANA891--- JA8368

20130614 ANA---882 JA8368
20130614 ANA881884 JA8275
20130614 ANA883886 JA8287
20130614 ANA885888 JA8287
20130614 ANA887890 JA8578
20130614 ANA889892 JA8669
20130614 ANA891--- JA701A

20130615 ANA---882 JA701A
20130615 ANA881884 JA8669
20130615 ANA883886 JA8289
20130615 ANA885888 JA812A
20130615 ANA887890 JA8669
20130615 ANA889892 JA803A
20130615 ANA891--- JA816A

20130616 ANA---882 JA816A
20130616 ANA881884 JA8288
20130616 ANA883886 JA8363
20130616 ANA885888 JA817A
20130616 ANA887890 JA8342
20130616 ANA889892 JA803A
20130616 ANA891--- JA819A

20130617 ANA---882 JA816A
20130617 ANA881884 JA8567
20130617 ANA883886 JA8289
20130617 ANA885888 JA803A
20130617 ANA887890 JA8578
20130617 ANA889892 JA817A
20130617 ANA891--- JA819A

| | コメント (0) | トラックバック (0)

2013/06/17

はくちょうもアメちゃんも見たい787 富山空港 2013/6/16 sun

朝一で、かわいい娘を見送った後の787就航2日目です。

RJNT 152200Z 06006KT 020V100 7000 FEW005 SCT008 BKN030 22/21 Q1009

20130616_rjnt_20ja8288

20130616_rjnt_21ja8288

20130616_rjnt_22ja8288

ANA881 RJTT-RJNT JA8288 B767-381

ここで、一旦撤収です。午後の885に合わせて再度河原に出向きました。

RJNT 160400Z 04004KT 320V130 9999 FEW010 SCT040 25/20 Q1007

20130616_rjnt_30ja305k

ADO78 RJCC-RJNT JA305K B737-54K

20130616_rjnt_31ja6747

出かける前に自宅上空を通過していった、「はくちょう」  どこかで訓練をして戻ってきた模様。

訂正 南砺でのアクチャルミッションでの飛来でした。ありがとうございます。石川防災が岐阜に行っていたので、めずらしく新潟に応援要請したようだ。「とやま」は現在整備中。警察へりも最近飛んでいないので、また不具合でもあるのか?

JA6747 S76B 新潟県防災

RJNT 160500Z 36006KT 340V040 9999 FEW015 SCT025 26/20 Q1006

20130616_rjnt_32ja817a

遠目に885が見えてきました。ADOとのシーケンスチェンジでサークリングする模様。

20130616_rjnt_33ja305k

ADOがRW02へタクシーアウト。

ADO89 RJNT-RJCC JA304K B737-54K

20130616_rjnt_34ja817a

885はライトブレイクしてレフトダウンウインドに入ります。

20130616_rjnt_35ja305k

ADOがテイクオフローリング。

20130616_rjnt_36ja817a

ベース。

20130616_rjnt_37ja817a

オンファィナル。

20130616_rjnt_38ja817a

20130616_rjnt_39ja817a

RW02ランディング。

20130616_rjnt_40ja817a

20130616_rjnt_41ja817a

タクシー1A。

ANA885 RJTT-RJNT JA817A B787-881

20130616_rjnt_42ja6747

787の到着にあわせたようにタクシーして、新潟に帰還の「はくちょう」。

20130616_rjnt_43ja3941

これも、787に合わせて飛来した、くさい、福井所在機。

JA3941 C172P

20130616_rjnt_44n4972r

ADOが離陸した後にTOEをハイステーションする機体が・・・

おや、おや、ノベンバー for ナイナー セブン too ロメオ 

20130616_rjnt_45n4972r

米軍横田飛行クラブのセスナ登場

20130616_rjnt_46n4972r

N4972R T-41C(C172H) USAF

RJNT 160600Z 06006KT 330V110 9999 FEW015 SCT025 26/20 Q1006

20130616_rjnt_47ja817a

15:31 プッシュバック 今日も送迎デッキは鈴なりです。

20130616_rjnt_49ja817a

20130616_rjnt_50ja817a

20130616_rjnt_51ja817a

ローテイトポイントはB6やB7と同じぐらい。

20130616_rjnt_52ja817a

ANA888 RJNT-RJTT JA817A B787-881

20130616_rjnt_53ja9439

遠ーくからも聞こえる独特のベルサウドを響かせて・・

JA9439 B204B2 SNK

RJNT 160700Z VRB03KT 9999 FEW020 27/20 Q1005

20130616_rjnt_54n4972r

16:07 上空で887を待たせて新潟に向けて出発していった。

20130616_rjnt_55ja8342

ANA887 RJTT-RJNT JA8342 B767-381

20130616_rjnt_56ja8342

ANA890 RJNT-RJTT JA8342 B767-381

ここで、889が来るまでは2時間。NABで夕涼みです。

RJNT 161000Z 01007KT 9999 FEW020 SCT030 BKN045 24/20 Q1006

20130616_rjnt_57ja803a

19:21 陽は落ちてしまったが、薄暮の明かりが残っている状況です。

20130616_rjnt_58ja803a

889もサークルのRW02

20130616_rjnt_59ja803a

20130616_rjnt_60ja803a

20130616_rjnt_61ja803a

20130616_rjnt_62ja803a

20130616_rjnt_63ja803a

ANA889 RJTT-RJNT JA803A B787-881

今日は、これで打ち止め。日常の風景に溶けていきます。

**追記**

明日17日のお友達の飛来を予想してみる。(結果)

ANA885888 JA803A (JA___A)

ANA889892 JA812A (JA___A)

ANA891--- JA816A (JA___A)

さて、当たりますか?

| | コメント (0) | トラックバック (0)

2013/06/16

787がやって来るヤァ!ヤァ!ヤァ! 富山空港 2013/6/15 sat

1987年にB767-300が就航して、四半世紀。富山空港に新たなページが追加される。DREAM LINER Boing787の就航だ。

マスゴミの金太郎飴のような腐った枕詞は、聞き飽きたが、遅ればせながら富山にも就航となった。

20130615_rjnt_00rjnt

きときと と 北陸新幹線開通 の狭間に咲く花か・・。

初就航便は、午後のANA885。生憎の天候の中、沢山の人が固唾を飲んで姿を待った。

RJNT 150527Z VRB02KT 4000 SHRA BR FEW003 SCT005 BKN025 23/21 Q1010 RMK 1ST003 3ST005 5CU025 A2984

ヤァ!

20130615_rjnt_01ja812a

ビジ4000 BRもやの中、ようやく視認。

20130615_rjnt_02ja812a

LOCコースからビジュアルでRWにアラインして

20130615_rjnt_03ja812a

20130615_rjnt_04ja812a

タッチダウン

20130615_rjnt_05ja812a

20130615_rjnt_06ja812a

サービスなのか? 流してRWエンドまで転がって、姿をお披露目。

20130615_rjnt_07ja812a

20130615_rjnt_08ja812a

20130615_rjnt_09ja812a

20130615_rjnt_10ja812a

ANA885 RJTT-RJNT JA812A B787-881

14:33 ADOを待たせて、今日から利用される1Aにスポットイン。

RJNT 150600Z VRB02KT 6000 -SHRA BR FEW003 SCT015 BKN025 23/21 Q1010

20130615_rjnt_11ja812a

15:24 折り返しANA886はプッシュバック

20130615_rjnt_12ja812a

上空で上海を待たせて、RW02からテイクオフ。

20130615_rjnt_13ja812a

20130615_rjnt_14ja812a

20130615_rjnt_15ja812a

20130615_rjnt_16ja812a

ANA888 RJNT-RJTT JA812A B787-881

RJNT 151000Z VRB02KT 9999 FEW002 SCT006 BKN010 23/21 Q1010

ヤァ!

20130615_rjnt_17ja803a

787の次便は、陽が落ちてからのANA889

20130615_rjnt_18ja803a

20130615_rjnt_19ja803a

20130615_rjnt_20ja803a

20130615_rjnt_21ja803a

20130615_rjnt_22ja803a

1Aはここですよ 

20130615_rjnt_23ja803a

19:26

ANA889 RJTT-RJNT JA803A B787-881

RJNT 151100Z 36003KT 8000 -SHRA FEW002 SCT007 BKN010 22/21 Q1010

20130615_rjnt_24ja803a

20130615_rjnt_25ja803a

20130615_rjnt_26ja803a

応援のオブザーバーもそろってお見送りです。

20130615_rjnt_27ja803a

20130615_rjnt_28ja803a

RW02ターニングパッドで一瞬ライトが消えました?

20130615_rjnt_29ja803a

20130615_rjnt_30ja803a

ANA892 RJNT-RJTT JA803A B787-881

RJNT 151200Z 34003KT 7000 -SHRA FEW002 SCT007 BKN015 22/21 Q1010

ヤァ!

20130615_rjnt_31ja816a

3日続けて最終をデッキで迎えることに。

20130615_rjnt_32ja816a

20130615_rjnt_33ja816a

20130615_rjnt_34ja816a

20130615_rjnt_35ja816a

ANA891 RJTT-RJNT JA816A B787-881

長ーい一日でした。B787以外は、別掲します。

ふぅー、疲れた・・

| | コメント (0) | トラックバック (0)

新鮮 富山空港 2013/6/16 sun

親父の朝は早い!

シトシト雨音で目覚めると・・・ 昨日の皆様にお詫びをしてと、だって撃沈だったので。

♪雨の日曜 by ガガガSP !!!

そうですよ、大事な娘を一人にしておく冷たい大人 では、いけません!

RJNT 152200Z 06006KT 020V100 7000 FEW005 SCT008 BKN030 22/21 Q1009

20130616_rjnt_00ja816a

鑑に艶やかな姿

20130616_rjnt_01ja816a

昨晩、初めて富山にお泊りの JA816A 嬢

20130616_rjnt_02ja816a

ANA882初便の準備は、すすみます。

20130616_rjnt_03ja816a

河原では、先輩達が、はよ飛べと応援しています。

20130616_rjnt_04ja816a

風はNORTH WIND

20130616_rjnt_05ja816a

20130616_rjnt_06ja816a

20130616_rjnt_07ja816a

20130616_rjnt_08ja816a

朝の雨粒を蹴って・・・

20130616_rjnt_09ja816a

20130616_rjnt_10ja816a

20130616_rjnt_11ja816a

ANA882 RJNT-RJTT JA816A B787-881

♪空の彼方へ・・ 飛んでゆけー!

これからの活躍を応援しています。

河原では、地元町内会の皆さんが、清掃活動をされていました。ゴミは持ち帰り、いつまでも綺麗な撮影環境を維持していきましょう。参加者の皆さん、お疲れ様でした。お邪魔でしょうけど、これからもヨロシクお願いします。

**追記**

今日のお友達の飛来を予想してみる。(結果)

ANA885888 JA817A (JA817A)

ANA889892 JA803A (JA803A)

ANA891--- JA818A (JA816A)

さて、当たりますか?

| | コメント (0) | トラックバック (0)

2013/06/14

宵の口 富山空港 2013/6/14 fri

FRIDAY NIGHT と 言えば、 アラベスク・・・

なんなんだーと思いながら、昨日より天候が悪く、くらーい河原へ。

んー、889は辛いナァ!

RJNT 141000Z 30006KT 260V010 9999 FEW025 BKN040 26/20 Q1011

20130614_rjnt_00ja8669

20130614_rjnt_01ja8669

20130614_rjnt_02ja8669

ANA889 RJTT-RJNT JA8669 B767-381

なんか、ぶれぶれ感が半端ないのですが・・ 失礼。

RJNT 141100Z 36006KT 9999 FEW020 BKN040 25/21 Q1012

20130614_rjnt_03ja8669

20130614_rjnt_04ja8669

20130614_rjnt_05ja8669

20130614_rjnt_06ja8669

20130614_rjnt_07ja8669

ANA892 RJNT-RJTT JA8669 B767-381

RJNT 141200Z 28003KT 9999 FEW020 BKN035 25/20 Q1012

20130614_rjnt_08ja701a

今日の最終は、トリプル

20130614_rjnt_09ja701a

20130614_rjnt_10ja701a

夜の21Aは、見納め・・鴨

20130614_rjnt_11ja701a

20130614_rjnt_12ja701a

ANA891 RJTT-RJNT JA701A B777-281

20130614_rjnt_13ja701a

今日一日、お疲れ様でした。お尻から綺麗にしますねぇ。また明日ぁ。

| | コメント (0) | トラックバック (0)

夕涼み 富山空港 2013/6/13 thu

今が一日の陽が一番長い時期。昼間の酷暑をさけて、夕涼みがてら河原を散策してみた。

RJNT 131000Z 35007KT 9999 FEW040 SCT080 28/20 Q1011

20130613_rjnt_00

あー、まもなく日の入り。なんとか明かりが残ってくれればいいけれど。

20130613_rjnt_01ja8579

風は北寄り。889は素直にRW02へライトブレイク。

20130613_rjnt_02ja8579

20130613_rjnt_03ja8579

20130613_rjnt_04ja8579

20130613_rjnt_05ja8579

20130613_rjnt_06ja8579

ANA889 RJTT-RJNT JA8579 B767-381

RJNT 131100Z 36007KT 9999 FEW030 SCT/// 26/21 Q1011

20130613_rjnt_08ja8579

陽がどっぷり落ちたので、ターミナルへ。

20130613_rjnt_09ja8579

20130613_rjnt_10ja8579

20130613_rjnt_11ja8579

20130613_rjnt_12ja8579

ANA892 RJNT-RJTT JA8579 B767-381

RJNT 131200Z 36006KT 9999 FEW040 SCT/// 25/20 Q1012

20130613_rjnt_13ja8368

残るは最終の到着。今日がもしかしたらB6ラストの夜明かしかもしれない。

20130613_rjnt_14ja8368

20130613_rjnt_15ja8368

20130613_rjnt_16ja8368

ANA891 RJTT-RJNT JA8368 B767-381

20130613_rjnt_17rjnt

ターミナル屋上には、こんな案内が。今日、県議会でも取り上げられて報道機関に流れていたぞ。

| | コメント (0) | トラックバック (0)

2013/06/13

キトキト準備中 富山空港 2013/6/12 wed

あじぃぃぃ~!!! いきなり夏本番の天気にく~らくらです。

と言いながらも、今日は空ビルに登ってみました。なーんにもない、水曜日。なのでずが・・ 聞くところによると、「工作物撤去訓練」なるものが実施されていたようです。

20130612_rjnt_00rjnt

もう訓練は終了して、最後のRWチェック実施中。まもなくRW OPEN。

20130612_rjnt_01rjnt

置県130年を記念した愛称募集で、「富山きときと空港」と決まった。大々的な変化は無いが、亀の歩みのような準備が進んでいます。

20130612_rjnt_02rjnt

20130612_rjnt_03rjnt

空ビルの正面側名称は、現在工事中。

本日のターゲットは、777。キタキタっと・・・ なんと5つ櫻乗機とな。矢島大作戦は、なかったのか、残念。

RJNT 120100Z 35007KT 310V030 9999 FEW035 29/18 Q1009

20130612_rjnt_04ja744a

・・・ (私言 ご出演ありがとうございます)

20130612_rjnt_05ja744a

ANA883 RJTT-RJNT JA744A B777-281ER

744初飛来。眩しすぎー!!

20130612_rjnt_06ja744a

21Aもしばらく見られなくなりそうだ。

20130612_rjnt_07ja744a

20130612_rjnt_08ja744a

20130612_rjnt_09ja744a

20130612_rjnt_10ja744a

20130612_rjnt_11ja744a_2

ちょっと貼り過ぎ?

20130612_rjnt_12ja744a

さてぇ、・・・ 気がついたあなたは、エライ!

RJNT 120200Z 36006KT 300V080 9999 FEW035 31/18 Q1009

20130612_rjnt_13ja744a

ANA886 RJNT-RJTT JA744A B777-281ER

20130612_rjnt_14ja744a

20130612_rjnt_15ja744a

20130612_rjnt_16ja744a

20130612_rjnt_17ja744a

お尻は、まだまだ綺麗です。

20130612_rjnt_18ja744a

20130612_rjnt_19ja744a

20130612_rjnt_20ja744a

やっぱり貼り過ぎかな。

RJNT 120400Z 36010KT 340V040 9999 FEW040 31/17 Q1008

20130612_rjnt_21ja8595

20130612_rjnt_22ja8595

20130612_rjnt_23ja8595

20130612_rjnt_24ja8595

ADO78 RJCC-RJNT JA8595 B737-54K

RJNT 120500Z 01008KT 340V050 9999 FEW040 SCT090 31/17 Q1008

20130612_rjnt_25ja9690

JA9690 AS332L AAK

この機体がくると、夏山間近と感じますね。

20130612_rjnt_26ja8595

20130612_rjnt_27ja8595

ADO79 RJNT-RJCC JA8595 B737-54K

20130612_rjnt_28ja59an

グワーとひねって

20130612_rjnt_28aja59an

20130612_rjnt_29ja59an

ANA885 RJTT-RJNT JA59AN B737-881

RJNT 120600Z 36009KT 9999 FEW040 SCT080 31/17 Q1008

20130612_rjnt_30ja59an

20130612_rjnt_31ja59an

ANA888 RJNT-RJTT JA59AN B737-881

RJNT 120700Z 35008KT 9999 FEW040 SCT090 29/18 Q1008

20130612_rjnt_32ja8285

20130612_rjnt_33ja8285

ANA887 RJTT-RJNT JA8285 B767-381

キトキト空港の他、こちらの準備も進んでいますヨ!

20130612_rjnt_34rjnt

20130612_rjnt_35rjnt

20130612_rjnt_36rjnt

無事にやってくることを、お待ちしております。

| | コメント (0) | トラックバック (0)

2013/06/05

道行 那覇空港 2013/3/5 tue

南ぬ島石垣空港が開港して、早いもので3ケ月。直近の話題は787ですが、ようやく振り返りをしてみたいと思います。現在は、まだ梅雨真っ最中ですが、まもなく灼熱の夏ですね。なお、尖閣での戦いは、決して忘れないように。

道行 関西国際空港 2013/3/5 tue

20130305_roah_00ja804p

桃組に乗って関空から那覇へ。海中道路が見えて、まもなく到着です。

ROAH 050400Z 04008KT 010V140 1500 BKN060 19/04 RMK 6SC060 A3029

20130305_roah_01t465719

46-5719 T-4 204SQ SHARK11

石垣への乗り継ぎの合間に、ターミナルから記録する。

20130305_roah_02ja757a

ANA129 RJTT-ROAH JA757A B777-381

20130305_roah_03hl7515

AAR172 ROAH-RKSI HL7515 B767-38E

20130305_roah_04ja17an

ANA457 RJOT-ROAH JA17AN B737-781

20130305_roah_05ja8943

JAL912 ROAH-RJTT JA8943 B777-346

20130305_roah_06t465716

46-5716 T-4 SW

20130305_roah_07ja737h

SKY516 ROAH-RJTT JA737H B737-86N

20130305_roah_08ja64an

ANA784 ROAH-RJNS JA64AN B737-881

20130305_roah_09ja8526

JTA611 ROAH-ROIG JA8526 B737-4Q3

20130305_roah_10ja02an

ANA783 RJNS-ROAH JA02AN B737-781

20130305_roah_11ja8275

ANA461 RJOA-ROAH JA8275 B767-381

20130305_roah_12ja8526

JTA611 ROAH-ROIG JA8526 B737-4Q3

20130305_roah_13ja302k

ANA994 ROAH-RJCC JA302K B737-54K

20130305_roah_14ja64an

ANA784 ROAH-RJNS JA64AN B737-881

20130305_roah_15ja804p

APJ214 ROAH-RJBB JA804P A320-214

20130305_roah_16ja302k

ANA994 ROAH-RJCC JA302K B737-54K

20130305_roah_17ja804p

APJ214 ROAH-RJBB JA804P A320-214

20130305_roah_18ja8324

ANA457 RJOT-ROAH JA8324 B767-381

20130305_roah_19ja306k

ANA466 ROAH-RJSN JA306K B737-54K

20130305_roah_20ja8996

JTA212 ROKJ-ROAH JA8996 B737-446

20130305_roah_21ja306k

ANA466 ROAH-RJSN JA306K B737-54K

20130305_roah_22ja8994

JTA54 ROAH-RJTT JA8994 B737-446

20130305_roah_23ja755a

ANA131 RJTT-ROAH JA755A B777-381

20130305_roah_24t765756

76-5756 T-4 SW DEIGO-D

20130305_roah_25ja8342

ANA462 ROAH-RJOA JA8342 B767-381

20130305_roah_26bkbq

HKE658 VHHH-ROAH B-KBQ B737-84P

20130305_roah_27ja8995

JTA57 RJTT-ROAH JA8995 B737-446

20130305_roah_28ja75aj

JAL912 ROAH-RJTT JA751J B777-346

20130305_roah_29ja757a

ANA106 ROAH-RJOO JA757A B777-381

20130305_roah_30ja69an

ANA1724 ROMY-ROAH JA69AN B737-881

20130305_roah_31ja8974

RAC867 ROAH-RJMD JA8974 DHC-8-100

20130305_roah_32ja8597

JTA565 ROAH-ROMY JA8597 B737-4Q3

20130305_roah_33ja8973

RAC817 ROAH-RORY JA8973 DHC-8-100

20130305_roah_34ja17an

ANA458 ROAH-RJOT JA17AN B737-781

20130305_roah_35ja73nb

SKY546 ROMY-ROAH JA73NB B737-8HX

20130305_roah_36ja757a

ANA106 ROAH-RJOO JA757A B777-381

20130305_roah_37m5054

5054 P-3C VP-5

20130305_roah_38ja8275

ANA464 ROAH-RJSS JA8275 B767-381

20130305_roah_39ja356k

ANA488 ROAH-RJFF JA356K B737-54K

20130305_roah_40f228932

22-8932 F-15J 204SQ E02

| | コメント (0) | トラックバック (0)

2013/06/02

駒に惹かれて東北六魂祭 福島市 2013/6/1 sat

早いもので水無月。出先から駒に惹かれて、・・・ビュイっとな。

20130601_fukushima_00fu

20130601_fukushima_01fu

ついたは、福島駅。今日は東北復興のお祭り、「東北六魂祭」。

RJSF 010000Z 32003KT 250V060 CAVOK 18/08 Q1013

20130601_fukushima_02fu

国道四号線をメインに、東北六県のお祭りが大集合だ。

20130601_fukushima_03fu

福島市役所には自衛隊ブースも。隊長機は#745。

20130601_fukushima_04fu

ステージでは、まもなく開会式が始まる模様。

20130601_fukushima_05bi

自衛隊ブースにいらした第11飛行隊長田中二佐の、今シーズンワッペン。

RJST 010100Z 16007KT 120V180 9999 FEW005 SCT250 18/14 Q1013 RMK 1ST005 A2992

20130601_fukushima_06ja110b

上空では、福島県警のへりがヘリテレで会場周辺を警備している。

JA110B A109E 福島県警察

20130601_fukushima_07fu

ロケハンをしながら、周辺を偵察。この方角から本日のブルーインパルスの飛行が行われます。

時間までかなりあるので、当初想定した阿武隈川でシエスタ。

20130601_fukushima_08bi_2

13:58 5番機が天候と周辺偵察に飛来。

RJSF 010500Z 08006KT 030V160 9999 FEW050 BKN/// 24/03 Q1010

20130601_fukushima_09bi

幾度か周回して、ミッション・ゴー。

20130601_fukushima_10bi

14:08 ワイドデルタで飛行展示開始。見えるは福島県庁。小生は天神橋に陣取っています。

20130601_fukushima_11bi

偵察の5番機が集合して

20130601_fukushima_12bi

会場東側から

20130601_fukushima_13bi

デルタ360度ループですか

20130601_fukushima_14bi

20130601_fukushima_15bi_2

会場西側から再度進入して

20130601_fukushima_16bi

隊形変換中

20130601_fukushima_17bi

20130601_fukushima_18bi

サクラ

20130601_fukushima_19bi

会場に6つの輪が綺麗に描かれました。

20130601_fukushima_20bi

隊長機

20130601_fukushima_21bi_2

5・6番機が2機で

20130601_fukushima_22bi

オリジナル・キューピッド

20130601_fukushima_23bi

グッド!

20130601_fukushima_24bi

会場西側からファン・ブレイク

20130601_fukushima_25bi

なんだっけ・・・ と思っている間に 水平になって

20130601_fukushima_26bi

クロス・ブレイク カメラが追いついていません。

20130601_fukushima_27bi

トレイルからダイヤモンド

20130601_fukushima_28bi

4機のリーダーブネフィツト

20130601_fukushima_29bi

スワン?

20130601_fukushima_30bi

はい、大きなクローバー・リーフの出来上がり。

20130601_fukushima_31bi

5番機がぐーる・ぐる

20130601_fukushima_32bi

720度ターンかなぁ

20130601_fukushima_33bi_2

引いて引いて、ナウ 太陽が昇ります。

20130601_fukushima_34bi

伸ばして伸ばして、サンライズは日本の象徴。

20130601_fukushima_35bi

これにて、ミッションコンプリート。

20130601_fukushima_36bi

会場西側で編隊集合して、松島にRTB GJ!!! 800403

小生もRTB

20130601_fukushima_37ja62nh

祭りはこれから・・ 会場には報道へりが集まってきた。

JA62NH AS365N2 ANH

20130601_fukushima_38ja03cp_2

JA03CP EC135P2 CSP

| | コメント (0) | トラックバック (0)

« 2013年5月 | トップページ | 2013年7月 »